Time;durP1;ratioP1;P1;durP2;ratioP2;P2;SDS_P1;SDS_P2;PMS_P1;PMS_P2;Temp;Humidity;BMP_temperature;BMP_pressure;BME280_temperature;BME280_humidity;BME280_pressure;Samples;Min_cycle;Max_cycle;Signal;HPM_P1;HPM_P2
2021/08/05 00:00:53;;;;;;;8.48;4.50;;;;;;;;;;5061964;28;20040;-80
2021/08/05 00:03:18;;;;;;;12.07;5.85;;;;;;;;;;5078105;28;20090;-80
2021/08/05 00:05:44;;;;;;;8.25;4.68;;;;;;;;;;5061538;28;20090;-80
2021/08/05 00:08:09;;;;;;;8.80;4.35;;;;;;;;;;5078044;28;20040;-80
2021/08/05 00:10:34;;;;;;;11.13;4.40;;;;;;;;;;5077630;28;20036;-80
2021/08/05 00:13:00;;;;;;;12.10;4.20;;;;;;;;;;5078276;28;20029;-80
2021/08/05 00:15:26;;;;;;;6.50;4.28;;;;;;;;;;5078061;28;20036;-80
2021/08/05 00:17:51;;;;;;;12.48;5.28;;;;;;;;;;5078936;28;20029;-80
2021/08/05 00:20:17;;;;;;;11.35;5.05;;;;;;;;;;5077122;28;20059;-80
2021/08/05 00:22:42;;;;;;;11.60;4.20;;;;;;;;;;5078608;28;20043;-80
2021/08/05 00:25:08;;;;;;;7.22;4.28;;;;;;;;;;5078115;28;20447;-80
2021/08/05 00:27:33;;;;;;;10.57;4.25;;;;;;;;;;5060957;28;20136;-80
2021/08/05 00:29:59;;;;;;;9.57;4.63;;;;;;;;;;5077363;28;20440;-80
2021/08/05 00:32:24;;;;;;;10.85;4.60;;;;;;;;;;5061390;28;20064;-80
2021/08/05 00:34:50;;;;;;;9.68;4.57;;;;;;;;;;5060329;28;20127;-80
2021/08/05 00:37:15;;;;;;;9.60;5.00;;;;;;;;;;5076984;28;20058;-80
2021/08/05 00:39:41;;;;;;;21.35;5.30;;;;;;;;;;5060055;28;20069;-80
2021/08/05 00:42:06;;;;;;;9.30;4.68;;;;;;;;;;5077203;28;20043;-80
2021/08/05 00:44:33;;;;;;;5.57;4.45;;;;;;;;;;5076906;28;20081;-80
2021/08/05 00:46:58;;;;;;;11.18;4.35;;;;;;;;;;5060080;28;20037;-80
2021/08/05 00:49:24;;;;;;;8.20;4.60;;;;;;;;;;5077060;28;20033;-80
2021/08/05 00:51:50;;;;;;;5.13;3.75;;;;;;;;;;5059820;28;20063;-80
2021/08/05 00:54:16;;;;;;;8.13;4.55;;;;;;;;;;5073883;28;20499;-80
2021/08/05 00:56:42;;;;;;;8.20;4.90;;;;;;;;;;5096694;28;20024;-80
2021/08/05 00:59:07;;;;;;;13.70;4.38;;;;;;;;;;5079975;28;20435;-80
2021/08/05 01:01:55;;;;;;;12.20;4.57;;;;;;;;;;5080615;28;20036;-80
2021/08/05 01:04:21;;;;;;;9.70;5.82;;;;;;;;;;5080253;28;20402;-80
2021/08/05 01:06:49;;;;;;;15.05;5.22;;;;;;;;;;5079178;28;20047;-80
2021/08/05 01:09:47;;;;;;;7.93;4.53;;;;;;;;;;5079761;28;20063;-80
2021/08/05 01:12:29;;;;;;;7.07;5.15;;;;;;;;;;5097501;28;20145;-80
2021/08/05 01:15:05;;;;;;;6.00;4.43;;;;;;;;;;5079467;28;20684;-80
2021/08/05 01:17:36;;;;;;;6.82;4.53;;;;;;;;;;5096405;28;20466;-80
2021/08/05 01:20:04;;;;;;;6.90;4.35;;;;;;;;;;5079622;28;20065;-80
2021/08/05 01:22:44;;;;;;;6.80;4.25;;;;;;;;;;5096998;28;20043;-80
2021/08/05 01:25:23;;;;;;;7.97;4.40;;;;;;;;;;5117108;28;20031;-80
2021/08/05 01:27:50;;;;;;;9.57;4.38;;;;;;;;;;5117853;28;20027;-80
2021/08/05 01:30:15;;;;;;;7.53;4.65;;;;;;;;;;5100662;28;20038;-80
2021/08/05 01:32:43;;;;;;;8.52;4.57;;;;;;;;;;5118381;28;20039;-80
2021/08/05 01:35:10;;;;;;;8.32;4.38;;;;;;;;;;5100606;28;20039;-80
2021/08/05 01:37:36;;;;;;;9.48;5.05;;;;;;;;;;5117709;28;20087;-80
2021/08/05 01:40:03;;;;;;;7.80;4.78;;;;;;;;;;5117249;28;20019;-80
2021/08/05 01:42:30;;;;;;;8.20;4.70;;;;;;;;;;5117970;28;20043;-80
2021/08/05 01:44:57;;;;;;;10.57;4.57;;;;;;;;;;5117216;28;20150;-80
2021/08/05 01:47:22;;;;;;;6.72;5.10;;;;;;;;;;5100607;28;20036;-80
2021/08/05 01:49:48;;;;;;;7.22;4.78;;;;;;;;;;5118870;28;20038;-80
2021/08/05 01:52:16;;;;;;;9.70;4.45;;;;;;;;;;5118919;28;20028;-80
2021/08/05 01:54:41;;;;;;;5.97;4.57;;;;;;;;;;5099960;28;20148;-80
2021/08/05 01:57:11;;;;;;;8.40;4.53;;;;;;;;;;5118835;28;20059;-80
2021/08/05 01:59:36;;;;;;;7.15;4.43;;;;;;;;;;5099887;28;20126;-80
2021/08/05 02:02:02;;;;;;;7.90;4.65;;;;;;;;;;5117904;28;20070;-80
2021/08/05 02:04:42;;;;;;;11.02;5.35;;;;;;;;;;5100369;28;20039;-80
2021/08/05 02:07:18;;;;;;;11.85;4.50;;;;;;;;;;5100271;28;20024;-80
2021/08/05 02:10:16;;;;;;;;;;;;;;;;;;5116977;28;20106;-80
2021/08/05 02:13:14;;;;;;;7.15;4.40;;;;;;;;;;5095087;28;19918;-80
2021/08/05 02:15:54;;;;;;;9.07;5.05;;;;;;;;;;5099811;28;20043;-80
2021/08/05 02:18:21;;;;;;;6.47;4.75;;;;;;;;;;5120942;28;20481;-80
2021/08/05 02:20:48;;;;;;;7.53;4.75;;;;;;;;;;5125328;28;20039;-81
2021/08/05 02:23:15;;;;;;;6.68;4.53;;;;;;;;;;5105098;28;20099;-78
2021/08/05 02:25:42;;;;;;;6.30;4.90;;;;;;;;;;5104226;28;20114;-79
2021/08/05 02:28:08;;;;;;;11.27;4.85;;;;;;;;;;5121462;28;20039;-79
2021/08/05 02:30:37;;;;;;;7.70;5.28;;;;;;;;;;5121850;28;20043;-79
2021/08/05 02:33:04;;;;;;;13.98;4.85;;;;;;;;;;5105326;28;20046;-79
2021/08/05 02:35:32;;;;;;;7.68;5.22;;;;;;;;;;5107768;28;20031;-79
2021/08/05 02:37:58;;;;;;;7.43;4.78;;;;;;;;;;5107664;28;20739;-79
2021/08/05 02:40:23;;;;;;;7.95;4.40;;;;;;;;;;5124741;28;20035;-79
2021/08/05 02:42:49;;;;;;;6.50;4.60;;;;;;;;;;5107325;28;20552;-79
2021/08/05 02:45:16;;;;;;;6.85;4.68;;;;;;;;;;5107377;28;20046;-79
2021/08/05 02:47:42;;;;;;;11.65;5.22;;;;;;;;;;5110287;28;20124;-79
2021/08/05 02:50:09;;;;;;;10.68;5.40;;;;;;;;;;5114331;28;20049;-79
2021/08/05 02:52:35;;;;;;;8.90;4.75;;;;;;;;;;5095851;28;20094;-79
2021/08/05 02:55:06;;;;;;;7.40;5.20;;;;;;;;;;5104383;28;20024;-85
2021/08/05 02:57:32;;;;;;;7.20;5.20;;;;;;;;;;5105268;28;20035;-84
2021/08/05 02:59:59;;;;;;;10.50;4.60;;;;;;;;;;5120994;28;20036;-82
2021/08/05 03:02:24;;;;;;;23.02;5.07;;;;;;;;;;5104100;28;20089;-82
2021/08/05 03:04:50;;;;;;;8.73;5.20;;;;;;;;;;5120580;28;20019;-82
2021/08/05 03:07:16;;;;;;;13.93;5.53;;;;;;;;;;5125097;28;20473;-81
2021/08/05 03:09:41;;;;;;;6.20;5.03;;;;;;;;;;5107268;28;20099;-81
2021/08/05 03:12:08;;;;;;;8.05;4.65;;;;;;;;;;5106191;28;20038;-81
2021/08/05 03:14:34;;;;;;;12.75;4.97;;;;;;;;;;5106305;28;20036;-81
2021/08/05 03:17:00;;;;;;;5.97;4.07;;;;;;;;;;5123490;28;20027;-81
2021/08/05 03:19:26;;;;;;;7.10;4.35;;;;;;;;;;5123172;28;20054;-81
2021/08/05 03:21:51;;;;;;;7.15;4.00;;;;;;;;;;5106717;28;20111;-81
2021/08/05 03:24:16;;;;;;;7.53;4.57;;;;;;;;;;5067910;28;20064;-81
2021/08/05 03:26:42;;;;;;;7.13;4.93;;;;;;;;;;5066835;28;20040;-81
2021/08/05 03:29:08;;;;;;;7.45;4.97;;;;;;;;;;5083452;28;20167;-81
2021/08/05 03:31:33;;;;;;;5.03;4.40;;;;;;;;;;5068180;28;20055;-81
2021/08/05 03:33:59;;;;;;;8.65;4.85;;;;;;;;;;5067272;28;20086;-81
2021/08/05 03:36:24;;;;;;;13.98;5.90;;;;;;;;;;5082086;28;20052;-81
2021/08/05 03:38:49;;;;;;;8.32;4.65;;;;;;;;;;5064623;28;20104;-81
2021/08/05 03:41:15;;;;;;;8.95;5.38;;;;;;;;;;5065974;28;20139;-81
2021/08/05 03:43:40;;;;;;;8.93;5.30;;;;;;;;;;5084288;28;20036;-81
2021/08/05 03:46:06;;;;;;;6.60;4.80;;;;;;;;;;5082849;28;20037;-81
2021/08/05 03:48:31;;;;;;;9.15;5.03;;;;;;;;;;5065413;28;20040;-82
2021/08/05 03:50:57;;;;;;;7.20;4.90;;;;;;;;;;5082575;28;20068;-81
2021/08/05 03:53:22;;;;;;;8.20;5.63;;;;;;;;;;5077337;28;20035;-81
2021/08/05 03:55:48;;;;;;;8.65;5.40;;;;;;;;;;5097111;28;20033;-81
2021/08/05 03:58:13;;;;;;;8.98;5.80;;;;;;;;;;5065925;28;20116;-84
2021/08/05 04:00:39;;;;;;;6.63;5.15;;;;;;;;;;5082309;28;20044;-82
2021/08/05 04:03:04;;;;;;;15.05;5.88;;;;;;;;;;5065499;28;20424;-81
2021/08/05 04:05:30;;;;;;;6.35;5.10;;;;;;;;;;5065834;28;20039;-81
2021/08/05 04:07:55;;;;;;;9.40;5.95;;;;;;;;;;5082355;28;20425;-81
2021/08/05 04:10:21;;;;;;;9.02;5.28;;;;;;;;;;5065258;28;20032;-81
2021/08/05 04:12:46;;;;;;;8.38;4.88;;;;;;;;;;5082661;28;20132;-82
2021/08/05 04:15:12;;;;;;;8.23;5.60;;;;;;;;;;5063434;28;20060;-82
2021/08/05 04:17:38;;;;;;;13.20;5.88;;;;;;;;;;5079502;28;20033;-82
2021/08/05 04:20:05;;;;;;;10.65;5.20;;;;;;;;;;5063641;28;20029;-82
2021/08/05 04:22:30;;;;;;;9.82;4.82;;;;;;;;;;5063256;28;20478;-82
2021/08/05 04:24:56;;;;;;;6.03;5.07;;;;;;;;;;5079710;28;20055;-82
2021/08/05 04:27:22;;;;;;;7.65;5.32;;;;;;;;;;5081563;28;20477;-82
2021/08/05 04:29:48;;;;;;;10.57;5.78;;;;;;;;;;5099998;28;20039;-82
2021/08/05 04:32:13;;;;;;;9.85;5.60;;;;;;;;;;5099039;28;20097;-81
2021/08/05 04:34:38;;;;;;;10.00;5.70;;;;;;;;;;5098745;28;20093;-82
2021/08/05 04:37:04;;;;;;;10.35;5.90;;;;;;;;;;5082548;28;20044;-82
2021/08/05 04:39:29;;;;;;;10.95;5.15;;;;;;;;;;5099749;28;20040;-82
2021/08/05 04:41:55;;;;;;;7.43;5.07;;;;;;;;;;5081782;28;20035;-82
2021/08/05 04:44:20;;;;;;;7.75;5.10;;;;;;;;;;5100541;28;20078;-82
2021/08/05 04:46:46;;;;;;;12.52;5.43;;;;;;;;;;5098997;28;20035;-81
2021/08/05 04:49:11;;;;;;;7.05;5.07;;;;;;;;;;5082100;28;20448;-81
2021/08/05 04:51:36;;;;;;;13.43;5.70;;;;;;;;;;5098300;28;20039;-81
2021/08/05 04:54:03;;;;;;;10.00;5.90;;;;;;;;;;5082150;28;20039;-82
2021/08/05 04:56:30;;;;;;;15.13;5.72;;;;;;;;;;5097904;28;20115;-82
2021/08/05 04:58:55;;;;;;;7.72;5.78;;;;;;;;;;5102049;28;20038;-82
2021/08/05 05:01:21;;;;;;;9.32;5.65;;;;;;;;;;5101672;28;20067;-82
2021/08/05 05:03:47;;;;;;;9.38;5.88;;;;;;;;;;5101378;28;20042;-81
2021/08/05 05:06:12;;;;;;;12.30;6.82;;;;;;;;;;5118693;28;20469;-81
2021/08/05 05:08:39;;;;;;;7.20;6.47;;;;;;;;;;5102033;28;20032;-82
2021/08/05 05:11:04;;;;;;;9.85;6.85;;;;;;;;;;5100832;28;20039;-82
2021/08/05 05:13:29;;;;;;;6.85;5.95;;;;;;;;;;5101928;28;20062;-81
2021/08/05 05:15:55;;;;;;;9.85;5.28;;;;;;;;;;5118542;28;20464;-81
2021/08/05 05:18:23;;;;;;;16.05;5.70;;;;;;;;;;5101831;28;20526;-81
2021/08/05 05:20:50;;;;;;;7.18;5.07;;;;;;;;;;5120338;28;20036;-81
2021/08/05 05:23:15;;;;;;;9.57;6.22;;;;;;;;;;5102864;28;20102;-81
2021/08/05 05:25:41;;;;;;;10.98;6.07;;;;;;;;;;5104769;28;20063;-81
2021/08/05 05:28:08;;;;;;;8.90;6.10;;;;;;;;;;5097847;28;20027;-81
2021/08/05 05:30:34;;;;;;;10.85;6.85;;;;;;;;;;5097684;28;20036;-81
2021/08/05 05:32:59;;;;;;;11.05;8.50;;;;;;;;;;5081049;28;20051;-81
2021/08/05 05:35:26;;;;;;;13.18;7.25;;;;;;;;;;5097913;28;20032;-81
2021/08/05 05:37:53;;;;;;;11.55;8.02;;;;;;;;;;5097874;28;20028;-82
2021/08/05 05:40:19;;;;;;;12.20;7.95;;;;;;;;;;5097959;28;20560;-81
2021/08/05 05:42:45;;;;;;;8.40;7.60;;;;;;;;;;5081124;28;20071;-82
2021/08/05 05:45:12;;;;;;;9.50;7.35;;;;;;;;;;5082895;28;20058;-82
2021/08/05 05:47:39;;;;;;;10.43;7.82;;;;;;;;;;5098829;28;20032;-81
2021/08/05 05:50:05;;;;;;;10.55;7.43;;;;;;;;;;5081682;28;20047;-82
2021/08/05 05:52:31;;;;;;;11.02;7.60;;;;;;;;;;5082073;28;20032;-81
2021/08/05 05:54:57;;;;;;;8.90;7.80;;;;;;;;;;5101962;28;20031;-82
2021/08/05 05:57:22;;;;;;;9.15;6.97;;;;;;;;;;5106076;28;20035;-81
2021/08/05 05:59:49;;;;;;;11.20;6.95;;;;;;;;;;5105462;28;20034;-81
2021/08/05 06:02:14;;;;;;;9.57;6.50;;;;;;;;;;5103583;28;20046;-80
2021/08/05 06:04:40;;;;;;;15.10;6.35;;;;;;;;;;5095971;28;20033;-81
2021/08/05 06:07:05;;;;;;;9.50;6.38;;;;;;;;;;5079245;28;20623;-81
2021/08/05 06:09:30;;;;;;;11.82;7.35;;;;;;;;;;5063080;28;20040;-81
2021/08/05 06:11:56;;;;;;;10.43;5.82;;;;;;;;;;5082812;28;20096;-81
2021/08/05 06:14:21;;;;;;;10.65;5.97;;;;;;;;;;5082358;28;20043;-79
2021/08/05 06:16:47;;;;;;;12.32;6.15;;;;;;;;;;5081446;28;20020;-83
2021/08/05 06:19:13;;;;;;;8.70;5.90;;;;;;;;;;5064815;28;20038;-82
2021/08/05 06:21:39;;;;;;;11.27;6.10;;;;;;;;;;5066989;28;20028;-82
2021/08/05 06:24:05;;;;;;;7.22;5.95;;;;;;;;;;5069475;28;20036;-82
2021/08/05 06:26:30;;;;;;;12.00;6.18;;;;;;;;;;5062824;28;20036;-83
2021/08/05 06:28:55;;;;;;;13.50;7.30;;;;;;;;;;5060702;28;20032;-82
2021/08/05 06:31:21;;;;;;;9.45;6.38;;;;;;;;;;5079957;28;20055;-82
2021/08/05 06:33:51;;;;;;;7.55;6.10;;;;;;;;;;5060544;28;20178;-82
2021/08/05 06:36:21;;;;;;;10.10;6.10;;;;;;;;;;5076105;28;20040;-83
2021/08/05 06:38:48;;;;;;;7.85;6.45;;;;;;;;;;5060295;28;20032;-84
2021/08/05 06:41:14;;;;;;;7.10;6.30;;;;;;;;;;5061718;28;20109;-83
2021/08/05 06:43:39;;;;;;;7.28;6.13;;;;;;;;;;5060889;28;20064;-84
2021/08/05 06:46:05;;;;;;;7.78;5.95;;;;;;;;;;5083766;28;20040;-83
2021/08/05 06:48:30;;;;;;;7.97;6.75;;;;;;;;;;5051779;28;20047;-82
2021/08/05 06:50:56;;;;;;;10.15;6.80;;;;;;;;;;5068927;28;20043;-82
2021/08/05 06:53:21;;;;;;;6.72;5.60;;;;;;;;;;5097626;28;20040;-79
2021/08/05 06:55:47;;;;;;;6.93;5.80;;;;;;;;;;5104188;28;20036;-78
2021/08/05 06:58:13;;;;;;;9.00;5.60;;;;;;;;;;5104212;28;20049;-80
2021/08/05 07:00:38;;;;;;;7.85;5.63;;;;;;;;;;5105143;28;20064;-80
2021/08/05 07:03:04;;;;;;;7.43;5.10;;;;;;;;;;5079585;28;20043;-79
2021/08/05 07:05:30;;;;;;;11.35;5.50;;;;;;;;;;5100968;28;20032;-80
2021/08/05 07:07:55;;;;;;;6.80;5.60;;;;;;;;;;5084077;28;20047;-79
2021/08/05 07:10:22;;;;;;;7.43;5.43;;;;;;;;;;5083413;28;20028;-80
2021/08/05 07:12:47;;;;;;;5.13;4.60;;;;;;;;;;5103038;28;20040;-79
2021/08/05 07:15:14;;;;;;;5.30;4.38;;;;;;;;;;5102348;28;20028;-80
2021/08/05 07:17:44;;;;;;;5.20;4.70;;;;;;;;;;5102166;28;20031;-82
2021/08/05 07:20:11;;;;;;;4.30;3.90;;;;;;;;;;5111634;28;20032;-82
2021/08/05 07:22:38;;;;;;;5.63;4.47;;;;;;;;;;5107667;28;20110;-81
2021/08/05 07:25:05;;;;;;;5.75;4.63;;;;;;;;;;5104741;28;20096;-79
2021/08/05 07:27:31;;;;;;;9.55;4.80;;;;;;;;;;5102500;28;20036;-83
2021/08/05 07:29:56;;;;;;;6.47;4.18;;;;;;;;;;5084436;28;20046;-80
2021/08/05 07:32:22;;;;;;;8.27;5.03;;;;;;;;;;5098371;28;20055;-80
2021/08/05 07:34:48;;;;;;;6.72;4.88;;;;;;;;;;5098996;28;20119;-79
2021/08/05 07:37:13;;;;;;;5.85;4.90;;;;;;;;;;5083921;28;20539;-81
2021/08/05 07:39:39;;;;;;;8.57;5.43;;;;;;;;;;5082322;28;20036;-80
2021/08/05 07:42:05;;;;;;;7.78;4.57;;;;;;;;;;5098882;28;20040;-80
2021/08/05 07:44:30;;;;;;;8.07;4.80;;;;;;;;;;5099271;28;20473;-80
2021/08/05 07:46:55;;;;;;;5.93;4.10;;;;;;;;;;5082277;28;20036;-80
2021/08/05 07:49:21;;;;;;;4.43;4.03;;;;;;;;;;5082146;28;20039;-80
2021/08/05 07:51:46;;;;;;;6.57;4.05;;;;;;;;;;5090388;28;20469;-80
2021/08/05 07:54:12;;;;;;;5.55;4.03;;;;;;;;;;5119967;28;20067;-80
2021/08/05 07:56:37;;;;;;;6.80;5.10;;;;;;;;;;5119442;28;20078;-80
2021/08/05 07:59:03;;;;;;;7.20;4.85;;;;;;;;;;5102726;28;20085;-80
2021/08/05 08:01:28;;;;;;;6.07;4.43;;;;;;;;;;5102479;28;20043;-80
2021/08/05 08:03:53;;;;;;;9.98;4.28;;;;;;;;;;5103076;28;20047;-80
2021/08/05 08:06:19;;;;;;;5.68;4.55;;;;;;;;;;5118981;28;20034;-80
2021/08/05 08:08:44;;;;;;;9.55;5.20;;;;;;;;;;5102408;28;20040;-80
2021/08/05 08:11:10;;;;;;;6.38;4.53;;;;;;;;;;5102514;28;20104;-80
2021/08/05 08:13:35;;;;;;;6.55;4.47;;;;;;;;;;5119262;28;20066;-80
2021/08/05 08:16:01;;;;;;;5.30;3.97;;;;;;;;;;5101836;28;20031;-80
2021/08/05 08:18:26;;;;;;;5.00;4.32;;;;;;;;;;5103117;28;20028;-80
2021/08/05 08:20:55;;;;;;;7.53;5.05;;;;;;;;;;5102225;28;20032;-80
2021/08/05 08:23:21;;;;;;;6.78;4.22;;;;;;;;;;5099624;28;20039;-80
2021/08/05 08:25:46;;;;;;;8.38;3.65;;;;;;;;;;5099067;28;20401;-80
2021/08/05 08:28:12;;;;;;;8.57;4.22;;;;;;;;;;5098904;28;20028;-81
2021/08/05 08:30:37;;;;;;;5.80;3.63;;;;;;;;;;5082277;28;20489;-81
2021/08/05 08:33:03;;;;;;;5.25;4.22;;;;;;;;;;5098735;28;20052;-81
2021/08/05 08:35:28;;;;;;;6.03;4.75;;;;;;;;;;5099013;28;20126;-81
2021/08/05 08:37:54;;;;;;;4.75;3.40;;;;;;;;;;5100058;28;20032;-81
2021/08/05 08:40:20;;;;;;;3.90;3.40;;;;;;;;;;5098629;28;20043;-80
2021/08/05 08:42:45;;;;;;;6.50;3.70;;;;;;;;;;5098686;28;20047;-81
2021/08/05 08:45:14;;;;;;;4.10;3.70;;;;;;;;;;5098744;28;20060;-81
2021/08/05 08:47:41;;;;;;;6.28;4.95;;;;;;;;;;5081428;28;20032;-81
2021/08/05 08:50:07;;;;;;;4.78;3.85;;;;;;;;;;5081388;28;20031;-81
2021/08/05 08:52:35;;;;;;;3.72;3.33;;;;;;;;;;5097715;28;20036;-81
2021/08/05 08:55:03;;;;;;;8.40;4.18;;;;;;;;;;5081499;28;20097;-81
2021/08/05 08:57:34;;;;;;;3.85;3.47;;;;;;;;;;5081931;28;20028;-81
2021/08/05 09:00:06;;;;;;;7.60;3.75;;;;;;;;;;5077802;28;20058;-81
2021/08/05 09:02:31;;;;;;;4.57;3.28;;;;;;;;;;5078163;28;20032;-81
2021/08/05 09:04:57;;;;;;;8.63;3.92;;;;;;;;;;5078928;28;20398;-81
2021/08/05 09:07:26;;;;;;;8.73;3.70;;;;;;;;;;5078719;28;20118;-81
2021/08/05 09:09:51;;;;;;;5.97;3.65;;;;;;;;;;5078974;28;20032;-81
2021/08/05 09:12:17;;;;;;;7.18;3.72;;;;;;;;;;5077960;28;20032;-81
2021/08/05 09:14:50;;;;;;;4.22;3.67;;;;;;;;;;5078669;28;20031;-81
2021/08/05 09:17:29;;;;;;;4.88;3.75;;;;;;;;;;5061097;28;20062;-81
2021/08/05 09:19:57;;;;;;;5.18;3.40;;;;;;;;;;5061106;28;20104;-81
2021/08/05 09:22:28;;;;;;;3.45;2.80;;;;;;;;;;5077234;28;20032;-81
2021/08/05 09:24:53;;;;;;;5.43;3.22;;;;;;;;;;5098118;28;20104;-81
2021/08/05 09:27:33;;;;;;;3.53;3.22;;;;;;;;;;5099965;28;20074;-81
2021/08/05 09:29:59;;;;;;;4.50;2.92;;;;;;;;;;5100417;28;20095;-81
2021/08/05 09:32:29;;;;;;;5.43;3.30;;;;;;;;;;5099369;28;20052;-80
2021/08/05 09:35:06;;;;;;;2.60;2.38;;;;;;;;;;5080594;28;20051;-81
2021/08/05 09:37:39;;;;;;;3.42;2.72;;;;;;;;;;5098817;28;20059;-81
2021/08/05 09:40:17;;;;;;;3.10;2.75;;;;;;;;;;5099136;28;20040;-81
2021/08/05 09:42:55;;;;;;;4.43;2.55;;;;;;;;;;5082954;28;20099;-81
2021/08/05 09:45:36;;;;;;;3.53;2.42;;;;;;;;;;5083185;28;20032;-80
2021/08/05 09:48:01;;;;;;;7.25;2.92;;;;;;;;;;5106021;28;20039;-81
2021/08/05 09:50:27;;;;;;;5.65;2.50;;;;;;;;;;5103141;28;20032;-81
2021/08/05 09:53:06;;;;;;;4.05;2.58;;;;;;;;;;5082755;28;20127;-81
2021/08/05 09:55:31;;;;;;;4.55;2.10;;;;;;;;;;5082125;28;20040;-81
2021/08/05 09:57:57;;;;;;;7.50;2.25;;;;;;;;;;5098817;28;20378;-81
2021/08/05 10:00:22;;;;;;;4.40;2.55;;;;;;;;;;5099115;28;20059;-81
2021/08/05 10:02:52;;;;;;;3.35;2.70;;;;;;;;;;5098835;28;20036;-81
2021/08/05 10:05:23;;;;;;;2.83;2.22;;;;;;;;;;5081735;28;20035;-81
2021/08/05 10:07:48;;;;;;;6.57;2.97;;;;;;;;;;5081243;28;20483;-81
2021/08/05 10:10:15;;;;;;;6.75;3.25;;;;;;;;;;5099026;28;20574;-81
2021/08/05 10:12:53;;;;;;;2.97;2.38;;;;;;;;;;5099006;28;20024;-81
2021/08/05 10:15:20;;;;;;;4.20;2.70;;;;;;;;;;5099879;28;20028;-81
2021/08/05 10:17:52;;;;;;;10.73;3.10;;;;;;;;;;5081000;28;20047;-81
2021/08/05 10:20:19;;;;;;;4.50;2.83;;;;;;;;;;5097545;28;20570;-81
2021/08/05 10:22:46;;;;;;;9.05;4.00;;;;;;;;;;5093333;28;20267;-81
2021/08/05 10:25:14;;;;;;;4.97;2.80;;;;;;;;;;5061496;28;20086;-81
2021/08/05 10:27:40;;;;;;;3.17;2.42;;;;;;;;;;5078700;28;20494;-81
2021/08/05 10:30:14;;;;;;;2.67;2.10;;;;;;;;;;5062326;28;20044;-81
2021/08/05 10:32:40;;;;;;;4.18;2.60;;;;;;;;;;5078577;28;20048;-82
2021/08/05 10:35:08;;;;;;;2.90;2.63;;;;;;;;;;5062304;28;20371;-80
2021/08/05 10:37:33;;;;;;;3.58;2.45;;;;;;;;;;5078100;28;20032;-81
2021/08/05 10:39:59;;;;;;;4.93;2.70;;;;;;;;;;5081788;28;20028;-82
2021/08/05 10:42:24;;;;;;;4.13;2.65;;;;;;;;;;5064987;28;20417;-81
2021/08/05 10:44:51;;;;;;;5.63;2.15;;;;;;;;;;5081629;28;20044;-81
2021/08/05 10:47:20;;;;;;;4.78;2.40;;;;;;;;;;5081568;28;20036;-81
2021/08/05 10:49:47;;;;;;;2.10;1.90;;;;;;;;;;5064114;28;20041;-81
2021/08/05 10:52:38;;;;;;;3.50;2.55;;;;;;;;;;5085776;28;20119;-81
2021/08/05 10:55:20;;;;;;;3.33;2.30;;;;;;;;;;5101173;28;20127;-81
2021/08/05 10:58:05;;;;;;;4.35;2.65;;;;;;;;;;5100275;28;20036;-81
2021/08/05 11:00:51;;;;;;;3.70;2.20;;;;;;;;;;5083788;28;20032;-81
2021/08/05 11:03:37;;;;;;;6.60;2.20;;;;;;;;;;5084160;28;20035;-81
2021/08/05 11:06:07;;;;;;;4.23;2.50;;;;;;;;;;5082839;28;20036;-81
2021/08/05 11:08:33;;;;;;;3.75;2.10;;;;;;;;;;5082951;28;20040;-81
2021/08/05 11:11:22;;;;;;;10.02;2.80;;;;;;;;;;5099940;28;20026;-81
2021/08/05 11:14:08;;;;;;;3.03;2.63;;;;;;;;;;5099624;28;20028;-81
2021/08/05 11:17:05;;;;;;;3.72;2.20;;;;;;;;;;5075294;28;20070;-81
2021/08/05 11:19:33;;;;;;;4.05;2.28;;;;;;;;;;5101294;28;20405;-81
2021/08/05 11:22:39;;;;;;;3.03;2.25;;;;;;;;;;5080066;28;20032;-80
2021/08/05 11:25:05;;;;;;;5.05;2.15;;;;;;;;;;5069574;28;20517;-81
2021/08/05 11:27:30;;;;;;;2.15;1.95;;;;;;;;;;5108829;28;20089;-80
2021/08/05 11:29:56;;;;;;;3.20;1.80;;;;;;;;;;5093768;28;20077;-81
2021/08/05 11:32:21;;;;;;;2.22;1.92;;;;;;;;;;5088972;28;20402;-82
2021/08/05 11:35:02;;;;;;;1.92;1.70;;;;;;;;;;5100818;28;20032;-82
2021/08/05 11:37:28;;;;;;;2.17;1.75;;;;;;;;;;5082569;28;20051;-81
2021/08/05 11:39:57;;;;;;;2.65;2.03;;;;;;;;;;5084239;28;20047;-85
2021/08/05 11:42:24;;;;;;;2.38;1.90;;;;;;;;;;5082656;28;20055;-84
2021/08/05 11:45:07;;;;;;;5.15;1.67;;;;;;;;;;5085738;28;20038;-84
2021/08/05 11:47:35;;;;;;;3.38;2.00;;;;;;;;;;5104482;28;20043;-83
2021/08/05 11:50:09;;;;;;;6.22;1.88;;;;;;;;;;5103190;28;20126;-82
2021/08/05 11:52:39;;;;;;;2.45;1.80;;;;;;;;;;5088043;28;20037;-81
2021/08/05 11:55:09;;;;;;;4.53;1.90;;;;;;;;;;5078969;28;20374;-82
2021/08/05 11:57:46;;;;;;;2.10;1.60;;;;;;;;;;5061834;28;20095;-80
2021/08/05 12:00:17;;;;;;;2.25;1.80;;;;;;;;;;5064089;28;20036;-82
2021/08/05 12:02:44;;;;;;;2.75;1.88;;;;;;;;;;5080780;28;20497;-83
2021/08/05 12:05:10;;;;;;;2.58;1.70;;;;;;;;;;5086636;28;20027;-82
2021/08/05 12:07:38;;;;;;;2.10;1.63;;;;;;;;;;5098734;28;20398;-82
2021/08/05 12:10:27;;;;;;;2.92;1.60;;;;;;;;;;5082659;28;20031;-82
2021/08/05 12:12:54;;;;;;;2.13;1.50;;;;;;;;;;5082779;28;20482;-82
2021/08/05 12:15:43;;;;;;;3.88;1.80;;;;;;;;;;5083627;28;20131;-82
2021/08/05 12:18:11;;;;;;;1.85;1.50;;;;;;;;;;5083064;28;20024;-82
2021/08/05 12:20:41;;;;;;;2.17;1.80;;;;;;;;;;5099281;28;20127;-82
2021/08/05 12:23:18;;;;;;;1.70;1.55;;;;;;;;;;5083803;28;20036;-82
2021/08/05 12:25:50;;;;;;;3.42;1.70;;;;;;;;;;5079085;28;20029;-82
2021/08/05 12:28:21;;;;;;;3.30;1.48;;;;;;;;;;5062264;28;20437;-82
2021/08/05 12:30:52;;;;;;;8.15;1.90;;;;;;;;;;5060983;28;20119;-82
2021/08/05 12:33:29;;;;;;;4.03;2.10;;;;;;;;;;5061544;28;20068;-82
2021/08/05 12:36:00;;;;;;;5.63;1.60;;;;;;;;;;5061970;28;20036;-82
2021/08/05 12:38:26;;;;;;;2.22;1.90;;;;;;;;;;5061261;28;20032;-81
2021/08/05 12:40:52;;;;;;;7.32;2.10;;;;;;;;;;5078161;28;20471;-82
2021/08/05 12:43:18;;;;;;;2.88;1.95;;;;;;;;;;5061223;28;20039;-82
2021/08/05 12:45:47;;;;;;;3.83;1.92;;;;;;;;;;5061541;28;20032;-82
2021/08/05 12:48:13;;;;;;;2.25;1.83;;;;;;;;;;5079348;28;20050;-81
2021/08/05 12:50:43;;;;;;;1.77;1.60;;;;;;;;;;5061780;28;20036;-82
2021/08/05 12:53:24;;;;;;;4.53;1.60;;;;;;;;;;5076569;28;20042;-81
2021/08/05 12:55:51;;;;;;;4.10;2.30;;;;;;;;;;5083007;28;20039;-83
2021/08/05 12:58:19;;;;;;;5.82;2.10;;;;;;;;;;5082499;28;20039;-84
2021/08/05 13:00:44;;;;;;;4.63;1.83;;;;;;;;;;5099887;28;20032;-83
2021/08/05 13:03:10;;;;;;;3.78;1.88;;;;;;;;;;5085136;28;20119;-84
2021/08/05 13:05:51;;;;;;;6.80;1.90;;;;;;;;;;5101626;28;20035;-84
2021/08/05 13:08:33;;;;;;;2.22;1.90;;;;;;;;;;5088644;28;20035;-84
2021/08/05 13:11:00;;;;;;;2.20;1.65;;;;;;;;;;5086366;28;20032;-79
2021/08/05 13:13:42;;;;;;;5.75;1.90;;;;;;;;;;5096096;28;20024;-79
2021/08/05 13:16:28;;;;;;;2.05;1.30;;;;;;;;;;5096344;28;20390;-78
2021/08/05 13:19:14;;;;;;;1.92;1.30;;;;;;;;;;5080110;28;20035;-79
2021/08/05 13:21:45;;;;;;;3.28;1.83;;;;;;;;;;5079298;28;20040;-79
2021/08/05 13:24:24;;;;;;;3.70;1.85;;;;;;;;;;5094609;28;20039;-78
2021/08/05 13:26:54;;;;;;;3.17;1.63;;;;;;;;;;5096020;28;20036;-78
2021/08/05 13:29:36;;;;;;;2.60;1.70;;;;;;;;;;5097129;28;20051;-78
2021/08/05 13:32:07;;;;;;;4.88;1.80;;;;;;;;;;5078628;28;20402;-78
2021/08/05 13:34:33;;;;;;;4.50;1.40;;;;;;;;;;5078287;28;20040;-78
2021/08/05 13:36:59;;;;;;;2.90;1.55;;;;;;;;;;5095607;28;20067;-78
2021/08/05 13:39:45;;;;;;;3.80;1.83;;;;;;;;;;5095137;28;20032;-78
2021/08/05 13:42:11;;;;;;;3.50;1.63;;;;;;;;;;5096392;28;20044;-78
2021/08/05 13:44:36;;;;;;;3.90;1.85;;;;;;;;;;5077262;28;20373;-78
2021/08/05 13:47:02;;;;;;;2.00;1.77;;;;;;;;;;5095388;28;20430;-79
2021/08/05 13:49:28;;;;;;;3.20;1.67;;;;;;;;;;5092624;28;20549;-78
2021/08/05 13:51:53;;;;;;;3.42;1.83;;;;;;;;;;5075742;28;20351;-77
2021/08/05 13:54:19;;;;;;;4.53;2.20;;;;;;;;;;5095484;28;20031;-77
2021/08/05 13:56:44;;;;;;;6.88;2.30;;;;;;;;;;5112447;28;20469;-77
2021/08/05 13:59:09;;;;;;;2.67;1.90;;;;;;;;;;5095265;28;20505;-77
2021/08/05 14:01:35;;;;;;;2.53;1.83;;;;;;;;;;5112340;28;20090;-77
2021/08/05 14:04:00;;;;;;;3.83;2.40;;;;;;;;;;5091879;28;20036;-77
2021/08/05 14:06:25;;;;;;;9.05;1.90;;;;;;;;;;5093356;28;20032;-77
2021/08/05 14:08:51;;;;;;;1.80;1.55;;;;;;;;;;5091104;28;20043;-79
2021/08/05 14:11:16;;;;;;;2.30;1.40;;;;;;;;;;5092172;28;20032;-77
2021/08/05 14:13:42;;;;;;;3.38;1.63;;;;;;;;;;5095977;28;20496;-77
2021/08/05 14:16:07;;;;;;;1.67;1.45;;;;;;;;;;5097560;28;20036;-77
2021/08/05 14:18:32;;;;;;;4.25;1.48;;;;;;;;;;5079301;28;20097;-77
2021/08/05 14:20:58;;;;;;;2.15;1.80;;;;;;;;;;5079143;28;20039;-77
2021/08/05 14:23:23;;;;;;;3.83;1.30;;;;;;;;;;5095480;28;20032;-77
2021/08/05 14:25:49;;;;;;;2.22;1.60;;;;;;;;;;5097482;28;20024;-77
2021/08/05 14:28:14;;;;;;;4.63;1.40;;;;;;;;;;5096215;28;20035;-77
2021/08/05 14:30:40;;;;;;;1.27;1.17;;;;;;;;;;5079174;28;20035;-77
2021/08/05 14:33:05;;;;;;;3.78;1.40;;;;;;;;;;5095775;28;20051;-77
2021/08/05 14:35:30;;;;;;;2.25;1.38;;;;;;;;;;5096208;28;20039;-77
2021/08/05 14:37:56;;;;;;;2.60;1.33;;;;;;;;;;5096364;28;20036;-77
2021/08/05 14:40:21;;;;;;;1.75;1.35;;;;;;;;;;5096829;28;20070;-77
2021/08/05 14:42:47;;;;;;;7.55;1.55;;;;;;;;;;5095823;28;20044;-76
2021/08/05 14:45:12;;;;;;;2.13;1.23;;;;;;;;;;5095607;28;20039;-77
2021/08/05 14:47:37;;;;;;;3.33;1.55;;;;;;;;;;5095290;28;20236;-77